Time;durP1;ratioP1;P1;durP2;ratioP2;P2;SDS_P1;SDS_P2;PMS_P1;PMS_P2;Temp;Humidity;BMP_temperature;BMP_pressure;BME280_temperature;BME280_humidity;BME280_pressure;Samples;Min_cycle;Max_cycle;Signal;HPM_P1;HPM_P2
2023/05/01 00:00:11;;;;;;;6.90;3.45;;;9.50;99.90;;;;;;5153964;27;20091;-58
2023/05/01 00:02:37;;;;;;;8.02;3.92;;;9.50;99.90;;;;;;5154224;27;20077;-59
2023/05/01 00:05:03;;;;;;;6.05;3.38;;;9.60;99.90;;;;;;5135517;27;20070;-58
2023/05/01 00:07:29;;;;;;;7.45;4.00;;;9.50;99.90;;;;;;5154036;27;20472;-58
2023/05/01 00:09:58;;;;;;;8.90;3.67;;;9.60;99.90;;;;;;5153767;27;20042;-58
2023/05/01 00:12:24;;;;;;;6.25;3.88;;;9.50;99.90;;;;;;5153844;27;20496;-57
2023/05/01 00:14:50;;;;;;;8.57;3.80;;;9.50;99.90;;;;;;5154352;27;20035;-58
2023/05/01 00:17:16;;;;;;;5.22;3.60;;;9.50;99.90;;;;;;5153953;27;20031;-58
2023/05/01 00:19:42;;;;;;;8.88;3.90;;;9.50;99.90;;;;;;5153866;27;20047;-58
2023/05/01 00:22:07;;;;;;;6.90;3.83;;;9.50;99.90;;;;;;5153654;27;20114;-57
2023/05/01 00:24:33;;;;;;;7.03;4.10;;;9.50;99.90;;;;;;5154115;27;20039;-58
2023/05/01 00:26:59;;;;;;;8.90;4.07;;;9.50;99.90;;;;;;5153641;27;20046;-57
2023/05/01 00:29:25;;;;;;;8.27;4.15;;;9.50;99.90;;;;;;5153791;27;20035;-57
2023/05/01 00:31:50;;;;;;;7.35;3.72;;;9.40;99.90;;;;;;5153974;27;20039;-59
2023/05/01 00:34:16;;;;;;;9.23;4.57;;;9.40;99.90;;;;;;5153877;27;20065;-58
2023/05/01 00:36:42;;;;;;;6.70;4.10;;;9.40;99.90;;;;;;5156620;27;20118;-57
2023/05/01 00:39:07;;;;;;;7.40;4.00;;;9.40;99.90;;;;;;5157721;27;20548;-58
2023/05/01 00:41:36;;;;;;;6.97;4.15;;;9.50;99.90;;;;;;5157797;27;20051;-58
2023/05/01 00:44:02;;;;;;;6.63;3.97;;;9.40;99.90;;;;;;5158061;27;20051;-58
2023/05/01 00:46:29;;;;;;;11.27;5.25;;;9.40;99.90;;;;;;5139379;27;20050;-58
2023/05/01 00:48:56;;;;;;;11.18;3.90;;;9.40;99.90;;;;;;5157764;27;20791;-58
2023/05/01 00:51:22;;;;;;;7.68;3.95;;;9.40;99.90;;;;;;5126459;27;20055;-59
2023/05/01 00:53:48;;;;;;;9.60;4.13;;;9.40;99.90;;;;;;5118199;27;20721;-58
2023/05/01 00:56:15;;;;;;;9.27;4.80;;;9.30;99.90;;;;;;5136654;27;20039;-58
2023/05/01 00:58:41;;;;;;;10.70;4.32;;;9.40;99.90;;;;;;5146215;27;20038;-58
2023/05/01 01:01:09;;;;;;;7.03;4.25;;;9.30;99.90;;;;;;5138291;27;20492;-57
2023/05/01 01:03:35;;;;;;;8.48;4.35;;;9.30;99.90;;;;;;5157060;27;20048;-58
2023/05/01 01:06:16;;;;;;;6.53;3.83;;;9.30;99.90;;;;;;5138999;27;20039;-58
2023/05/01 01:08:51;;;;;;;5.18;3.78;;;9.30;99.90;;;;;;5157410;27;20034;-58
2023/05/01 01:11:23;;;;;;;8.10;4.50;;;9.30;99.90;;;;;;5157387;27;20476;-57
2023/05/01 01:13:59;;;;;;;8.52;3.90;;;9.30;99.90;;;;;;5157128;27;20038;-58
2023/05/01 01:16:38;;;;;;;9.88;4.03;;;9.30;99.90;;;;;;5157188;27;20075;-58
2023/05/01 01:19:24;;;;;;;8.75;4.28;;;9.20;99.90;;;;;;5157119;27;20035;-57
2023/05/01 01:21:57;;;;;;;8.43;4.60;;;9.20;99.90;;;;;;5157099;27;20099;-57
2023/05/01 01:24:46;;;;;;;7.85;4.13;;;9.20;99.90;;;;;;5156969;27;20484;-57
2023/05/01 01:27:17;;;;;;;9.15;4.95;;;9.20;99.90;;;;;;5157112;27;20429;-58
2023/05/01 01:30:20;;;;;;;6.43;4.10;;;9.10;99.90;;;;;;5156794;27;20074;-58
2023/05/01 01:33:23;;;;;;;8.65;4.10;;;9.10;99.90;;;;;;5156620;27;20511;-57
2023/05/01 01:35:57;;;;;;;6.53;4.20;;;9.10;99.90;;;;;;5157021;27;20448;-57
2023/05/01 01:38:45;;;;;;;9.15;4.40;;;9.10;99.90;;;;;;5156415;27;20039;-57
2023/05/01 01:41:20;;;;;;;8.38;4.07;;;9.10;99.90;;;;;;5156520;27;20051;-57
2023/05/01 01:43:57;;;;;;;5.70;3.63;;;9.00;99.90;;;;;;5156917;27;20042;-58
2023/05/01 01:46:24;;;;;;;8.38;4.63;;;9.10;99.90;;;;;;5155987;27;20437;-57
2023/05/01 01:48:52;;;;;;;9.32;4.70;;;9.00;99.90;;;;;;5156567;27;20119;-58
2023/05/01 01:51:21;;;;;;;14.33;4.63;;;9.00;99.90;;;;;;5156528;27;20038;-58
2023/05/01 01:53:51;;;;;;;8.43;4.43;;;9.00;99.90;;;;;;5156316;27;20392;-57
2023/05/01 01:56:18;;;;;;;6.88;4.32;;;8.90;99.90;;;;;;5156363;27;20039;-58
2023/05/01 01:58:45;;;;;;;8.70;4.53;;;8.90;99.90;;;;;;5155817;27;20059;-58
2023/05/01 02:01:14;;;;;;;10.60;4.50;;;8.90;99.90;;;;;;5156219;27;20034;-58
2023/05/01 02:03:42;;;;;;;13.43;4.15;;;9.00;99.90;;;;;;5156125;27;20113;-58
2023/05/01 02:06:11;;;;;;;10.48;4.53;;;8.90;99.90;;;;;;5120404;27;20038;-58
2023/05/01 02:08:37;;;;;;;8.48;4.88;;;8.80;99.90;;;;;;5155759;27;20412;-57
2023/05/01 02:11:05;;;;;;;9.13;4.60;;;8.80;99.90;;;;;;5156282;27;20039;-57
2023/05/01 02:13:32;;;;;;;6.97;4.28;;;8.80;99.90;;;;;;5156105;27;20117;-57
2023/05/01 02:15:58;;;;;;;7.85;4.32;;;8.80;99.90;;;;;;5155951;27;20107;-57
2023/05/01 02:18:28;;;;;;;7.85;4.55;;;8.80;99.90;;;;;;5155909;27;20031;-57
2023/05/01 02:20:57;;;;;;;8.27;4.38;;;8.80;99.90;;;;;;5156105;27;20039;-58
2023/05/01 02:23:25;;;;;;;6.45;4.60;;;8.80;99.90;;;;;;5155962;27;20039;-57
2023/05/01 02:25:53;;;;;;;11.10;4.75;;;8.80;99.90;;;;;;5155863;27;20043;-58
2023/05/01 02:28:22;;;;;;;8.10;4.40;;;8.80;99.90;;;;;;5155885;27;20035;-58
2023/05/01 02:30:48;;;;;;;8.90;4.93;;;8.80;99.90;;;;;;5155634;27;20647;-57
2023/05/01 02:33:13;;;;;;;8.27;4.15;;;8.80;99.90;;;;;;5155388;27;20042;-58
2023/05/01 02:35:40;;;;;;;10.07;4.47;;;8.80;99.90;;;;;;5155745;27;20035;-58
2023/05/01 02:38:07;;;;;;;13.50;5.43;;;8.80;99.90;;;;;;5155974;27;20042;-58
2023/05/01 02:40:35;;;;;;;8.65;4.80;;;8.70;99.90;;;;;;5155297;27;20061;-57
2023/05/01 02:43:05;;;;;;;6.25;4.43;;;8.70;99.90;;;;;;5155618;27;20043;-57
2023/05/01 02:45:34;;;;;;;12.20;4.47;;;8.70;99.90;;;;;;5155332;27;20041;-57
2023/05/01 02:48:03;;;;;;;11.68;4.90;;;8.70;99.90;;;;;;5155232;27;20039;-57
2023/05/01 02:50:30;;;;;;;7.70;4.20;;;8.60;99.90;;;;;;5154997;27;20468;-57
2023/05/01 02:52:56;;;;;;;10.52;4.88;;;8.60;99.90;;;;;;5155126;27;20125;-58
2023/05/01 02:55:22;;;;;;;9.00;4.57;;;8.70;99.90;;;;;;5155012;27;20480;-57
2023/05/01 02:57:50;;;;;;;11.85;5.20;;;8.60;99.90;;;;;;5152337;27;20035;-58
2023/05/01 03:00:16;;;;;;;8.93;4.90;;;8.60;99.90;;;;;;5115380;27;20119;-58
2023/05/01 03:02:42;;;;;;;10.63;5.35;;;8.50;99.90;;;;;;5134212;27;20802;-59
2023/05/01 03:05:08;;;;;;;9.45;5.10;;;8.60;99.90;;;;;;5134406;27;20114;-58
2023/05/01 03:07:34;;;;;;;8.13;4.35;;;8.50;99.90;;;;;;5134150;27;20038;-58
2023/05/01 03:10:05;;;;;;;8.63;5.65;;;8.50;99.90;;;;;;5115993;27;20047;-58
2023/05/01 03:12:30;;;;;;;8.75;5.13;;;8.50;99.90;;;;;;5133902;27;20039;-57
2023/05/01 03:14:56;;;;;;;9.05;5.18;;;8.50;99.90;;;;;;5133866;27;20042;-58
2023/05/01 03:17:22;;;;;;;6.63;4.82;;;8.40;99.90;;;;;;5133976;27;20047;-58
2023/05/01 03:19:50;;;;;;;8.57;4.93;;;8.40;99.90;;;;;;5115667;27;20042;-58
2023/05/01 03:22:16;;;;;;;12.57;5.80;;;8.40;99.90;;;;;;5134031;27;20393;-57
2023/05/01 03:24:42;;;;;;;13.10;6.18;;;8.40;99.90;;;;;;5133881;27;20047;-57
2023/05/01 03:27:08;;;;;;;8.73;4.90;;;8.30;99.90;;;;;;5133642;27;20548;-58
2023/05/01 03:29:34;;;;;;;8.95;4.78;;;8.30;99.90;;;;;;5133844;27;20080;-59
2023/05/01 03:32:00;;;;;;;11.20;5.82;;;8.30;99.90;;;;;;5133943;27;20143;-57
2023/05/01 03:34:29;;;;;;;13.15;5.95;;;8.30;99.90;;;;;;5133952;27;20064;-57
2023/05/01 03:36:55;;;;;;;10.55;5.18;;;8.30;99.90;;;;;;5133861;27;20100;-58
2023/05/01 03:39:21;;;;;;;8.15;5.60;;;8.30;99.90;;;;;;5133952;27;20042;-57
2023/05/01 03:41:47;;;;;;;11.93;5.97;;;8.20;99.90;;;;;;5133307;27;20061;-57
2023/05/01 03:44:12;;;;;;;10.73;5.72;;;8.30;99.90;;;;;;5133392;27;20122;-57
2023/05/01 03:46:38;;;;;;;10.93;6.10;;;8.20;99.90;;;;;;5133496;27;20035;-57
2023/05/01 03:49:04;;;;;;;12.43;5.35;;;8.30;99.90;;;;;;5133535;27;20038;-58
2023/05/01 03:51:29;;;;;;;8.82;5.40;;;8.20;99.90;;;;;;5133325;27;20035;-57
2023/05/01 03:53:57;;;;;;;8.52;5.38;;;8.20;99.90;;;;;;5133385;27;20118;-57
2023/05/01 03:56:27;;;;;;;10.23;5.80;;;8.20;99.90;;;;;;5133587;27;20071;-57
2023/05/01 03:58:52;;;;;;;13.30;6.22;;;8.10;99.90;;;;;;5133009;27;20035;-57
2023/05/01 04:01:18;;;;;;;12.00;5.43;;;8.10;99.90;;;;;;5114792;28;20047;-58
2023/05/01 04:03:45;;;;;;;7.35;5.50;;;8.20;99.90;;;;;;5133270;27;20038;-57
2023/05/01 04:06:11;;;;;;;9.50;5.60;;;8.10;99.90;;;;;;5133575;27;20039;-58
2023/05/01 04:08:37;;;;;;;9.38;5.95;;;8.10;99.90;;;;;;5133157;28;20035;-58
2023/05/01 04:11:03;;;;;;;12.43;6.38;;;8.20;99.90;;;;;;5114684;28;20041;-57
2023/05/01 04:13:28;;;;;;;13.13;5.78;;;8.10;99.90;;;;;;5133090;28;20429;-57
2023/05/01 04:15:56;;;;;;;9.95;6.55;;;8.10;99.90;;;;;;5132825;28;20492;-57
2023/05/01 04:18:22;;;;;;;13.18;6.13;;;8.10;99.90;;;;;;5114583;28;20043;-57
2023/05/01 04:20:47;;;;;;;8.40;6.32;;;8.10;99.90;;;;;;5133158;28;20046;-57
2023/05/01 04:23:13;;;;;;;8.23;6.03;;;8.10;99.90;;;;;;5114891;28;20040;-57
2023/05/01 04:25:39;;;;;;;9.88;6.07;;;8.10;99.90;;;;;;5132955;28;20469;-57
2023/05/01 04:28:04;;;;;;;10.52;6.15;;;8.20;99.90;;;;;;5133061;28;20034;-57
2023/05/01 04:30:30;;;;;;;10.73;6.00;;;8.20;99.90;;;;;;5133255;28;20485;-57
2023/05/01 04:32:57;;;;;;;10.77;6.13;;;8.20;99.90;;;;;;5133120;28;20446;-57
2023/05/01 04:35:24;;;;;;;11.75;5.90;;;8.20;99.90;;;;;;5114610;28;20078;-57
2023/05/01 04:37:50;;;;;;;11.95;5.80;;;8.20;99.90;;;;;;5133081;28;20039;-57
2023/05/01 04:40:16;;;;;;;10.07;5.78;;;8.20;99.90;;;;;;5132964;28;20443;-57
2023/05/01 04:42:42;;;;;;;9.38;6.00;;;8.30;99.90;;;;;;5152156;27;20097;-57
2023/05/01 04:45:08;;;;;;;11.68;6.43;;;8.30;99.90;;;;;;5153813;27;20051;-57
2023/05/01 04:47:34;;;;;;;11.75;6.30;;;8.30;99.90;;;;;;5153624;27;20038;-57
2023/05/01 04:50:00;;;;;;;11.90;6.85;;;8.40;99.90;;;;;;5153601;27;20043;-57
2023/05/01 04:52:25;;;;;;;10.02;6.63;;;8.40;99.90;;;;;;5138309;27;20451;-57
2023/05/01 04:54:51;;;;;;;11.00;7.03;;;8.40;99.90;;;;;;5114629;28;20122;-57
2023/05/01 04:57:17;;;;;;;10.45;7.40;;;8.50;99.90;;;;;;5145212;27;20027;-57
2023/05/01 04:59:43;;;;;;;13.52;6.93;;;8.50;99.90;;;;;;5153384;27;20499;-58
2023/05/01 05:02:08;;;;;;;14.10;7.50;;;8.50;99.90;;;;;;5135265;27;20369;-58
2023/05/01 05:04:34;;;;;;;13.02;7.53;;;8.60;99.90;;;;;;5153572;27;20038;-58
2023/05/01 05:06:59;;;;;;;11.52;7.57;;;8.70;99.90;;;;;;5153499;27;20031;-57
2023/05/01 05:09:25;;;;;;;11.70;7.35;;;8.70;99.90;;;;;;5134705;27;20484;-58
2023/05/01 05:11:51;;;;;;;10.90;7.95;;;8.80;99.90;;;;;;5134499;27;20229;-59
2023/05/01 05:14:16;;;;;;;11.07;6.72;;;8.90;99.90;;;;;;5153152;27;20035;-57
2023/05/01 05:16:42;;;;;;;14.23;7.30;;;9.00;99.90;;;;;;5153288;27;20054;-57
2023/05/01 05:19:08;;;;;;;11.35;6.82;;;9.00;99.90;;;;;;5152999;27;20035;-58
2023/05/01 05:21:34;;;;;;;10.13;7.22;;;9.10;99.90;;;;;;5145988;27;20043;-57
2023/05/01 05:23:59;;;;;;;11.57;6.88;;;9.20;99.90;;;;;;5136675;27;20039;-57
2023/05/01 05:26:25;;;;;;;9.88;6.78;;;9.20;99.90;;;;;;5135928;27;20057;-58
2023/05/01 05:28:51;;;;;;;15.20;6.45;;;9.20;99.90;;;;;;5136369;27;20088;-57
2023/05/01 05:31:17;;;;;;;12.38;6.30;;;9.20;99.90;;;;;;5136239;27;20031;-57
2023/05/01 05:33:43;;;;;;;10.10;6.00;;;9.30;99.90;;;;;;5135768;27;20526;-58
2023/05/01 05:36:10;;;;;;;13.73;7.00;;;9.30;99.90;;;;;;5117051;27;20039;-57
2023/05/01 05:38:36;;;;;;;9.23;6.35;;;9.30;99.90;;;;;;5135774;27;20062;-57
2023/05/01 05:41:01;;;;;;;13.70;6.55;;;9.40;99.90;;;;;;5135591;27;20043;-57
2023/05/01 05:43:27;;;;;;;15.13;6.15;;;9.50;99.90;;;;;;5100472;27;20047;-58
2023/05/01 05:45:57;;;;;;;12.77;6.45;;;9.50;99.90;;;;;;5135676;27;20396;-58
2023/05/01 05:48:23;;;;;;;10.38;6.72;;;9.50;99.90;;;;;;5148342;27;20027;-58
2023/05/01 05:50:51;;;;;;;12.73;7.22;;;9.60;99.90;;;;;;5156240;27;20121;-58
2023/05/01 05:53:17;;;;;;;13.73;7.50;;;9.60;99.90;;;;;;5156366;27;20107;-58
2023/05/01 05:55:44;;;;;;;9.13;5.63;;;9.60;99.90;;;;;;5156587;27;20038;-58
2023/05/01 05:58:10;;;;;;;11.40;6.55;;;9.60;99.90;;;;;;5156378;27;20113;-58
2023/05/01 06:00:36;;;;;;;11.30;6.95;;;9.60;99.90;;;;;;5156382;27;20122;-58
2023/05/01 06:03:01;;;;;;;12.35;6.22;;;9.70;99.90;;;;;;5156291;27;20035;-58
2023/05/01 06:05:27;;;;;;;15.85;6.38;;;9.70;99.90;;;;;;5137726;27;20066;-58
2023/05/01 06:07:53;;;;;;;13.73;7.07;;;9.90;99.90;;;;;;5156168;27;20476;-57
2023/05/01 06:10:19;;;;;;;13.18;6.97;;;10.10;99.90;;;;;;5156356;27;20041;-58
2023/05/01 06:12:45;;;;;;;10.02;6.15;;;10.20;99.90;;;;;;5137316;27;20046;-58
2023/05/01 06:15:14;;;;;;;9.90;6.40;;;10.20;99.90;;;;;;5155863;27;20055;-58
2023/05/01 06:17:41;;;;;;;12.15;5.65;;;10.40;99.90;;;;;;5156017;27;20043;-58
2023/05/01 06:20:07;;;;;;;15.18;6.45;;;10.50;99.90;;;;;;5136473;27;20050;-58
2023/05/01 06:22:33;;;;;;;11.13;6.85;;;10.70;99.90;;;;;;5136766;27;20047;-57
2023/05/01 06:24:59;;;;;;;13.60;6.43;;;10.90;99.90;;;;;;5136656;27;20042;-58
2023/05/01 06:27:24;;;;;;;10.30;6.40;;;10.90;99.90;;;;;;5155336;27;20076;-58
2023/05/01 06:29:50;;;;;;;14.73;7.78;;;11.10;99.90;;;;;;5155882;27;20042;-58
2023/05/01 06:32:16;;;;;;;11.95;7.00;;;11.30;99.90;;;;;;5155420;27;20038;-57
2023/05/01 06:34:41;;;;;;;15.57;6.60;;;11.40;99.90;;;;;;5136501;27;20034;-58
2023/05/01 06:37:07;;;;;;;17.77;6.75;;;11.60;99.90;;;;;;5155515;27;20488;-57
2023/05/01 06:39:33;;;;;;;13.02;6.68;;;11.80;99.90;;;;;;5155590;27;20452;-58
2023/05/01 06:42:00;;;;;;;7.85;5.35;;;12.00;99.90;;;;;;5155248;27;20500;-58
2023/05/01 06:44:25;;;;;;;8.63;5.57;;;12.20;99.90;;;;;;5155570;27;20070;-58
2023/05/01 06:46:51;;;;;;;12.98;5.63;;;12.20;99.90;;;;;;5155130;27;20077;-58
2023/05/01 06:49:17;;;;;;;18.08;6.68;;;12.20;99.90;;;;;;5155422;27;20460;-58
2023/05/01 06:51:42;;;;;;;9.48;5.72;;;12.40;99.90;;;;;;5147515;27;20490;-57
2023/05/01 06:54:08;;;;;;;11.23;6.32;;;12.40;99.90;;;;;;5134627;27;20100;-58
2023/05/01 06:56:34;;;;;;;11.32;5.50;;;12.60;99.90;;;;;;5139203;27;20039;-58
2023/05/01 06:58:59;;;;;;;12.93;5.75;;;12.80;99.90;;;;;;5154957;27;20035;-59
2023/05/01 07:01:25;;;;;;;15.48;5.78;;;12.90;99.90;;;;;;5155519;27;20039;-59
2023/05/01 07:03:51;;;;;;;10.10;6.40;;;13.10;99.90;;;;;;5136903;27;20095;-59
2023/05/01 07:06:16;;;;;;;13.18;5.93;;;13.10;99.90;;;;;;5155504;27;20349;-58
2023/05/01 07:08:42;;;;;;;12.38;5.35;;;13.30;99.90;;;;;;5154793;27;20495;-58
2023/05/01 07:11:08;;;;;;;8.55;5.35;;;13.40;99.90;;;;;;5155011;27;20027;-58
2023/05/01 07:13:34;;;;;;;11.93;5.88;;;13.60;99.90;;;;;;5136313;27;20038;-58
2023/05/01 07:16:00;;;;;;;11.15;5.78;;;13.70;99.90;;;;;;5154993;27;20130;-58
2023/05/01 07:18:26;;;;;;;12.63;5.50;;;13.70;99.90;;;;;;5155076;27;20062;-61
2023/05/01 07:20:51;;;;;;;12.55;5.18;;;13.80;99.90;;;;;;5155278;27;20142;-59
2023/05/01 07:23:17;;;;;;;7.43;4.97;;;13.80;99.90;;;;;;5155102;27;20030;-62
2023/05/01 07:25:44;;;;;;;9.65;5.35;;;13.80;99.90;;;;;;5154706;27;20022;-58
2023/05/01 07:28:09;;;;;;;10.38;5.60;;;13.90;99.90;;;;;;5154671;27;20041;-59
2023/05/01 07:30:36;;;;;;;8.68;5.07;;;14.10;99.90;;;;;;5136120;27;20489;-62
2023/05/01 07:33:04;;;;;;;10.27;5.05;;;14.20;99.90;;;;;;5154434;27;20079;-59
2023/05/01 07:35:30;;;;;;;10.80;5.22;;;14.60;99.90;;;;;;5154454;27;20045;-58
2023/05/01 07:37:55;;;;;;;10.52;4.80;;;14.90;99.90;;;;;;5135813;27;20046;-59
2023/05/01 07:40:21;;;;;;;12.63;4.88;;;15.20;99.90;;;;;;5154513;27;20042;-60
2023/05/01 07:42:47;;;;;;;13.02;4.50;;;15.50;99.90;;;;;;5154275;27;20059;-61
2023/05/01 07:45:12;;;;;;;14.95;4.75;;;15.90;99.90;;;;;;5135665;27;20076;-59
2023/05/01 07:47:38;;;;;;;12.02;4.65;;;16.20;99.90;;;;;;5143062;27;20027;-59
2023/05/01 07:50:10;;;;;;;8.05;4.22;;;16.30;99.90;;;;;;5153220;27;20038;-59
2023/05/01 07:52:36;;;;;;;8.60;4.90;;;16.40;99.90;;;;;;5154480;27;20437;-59
2023/05/01 07:55:02;;;;;;;7.05;4.40;;;16.60;99.90;;;;;;5134741;27;20503;-58
2023/05/01 07:57:28;;;;;;;8.68;4.63;;;16.80;99.90;;;;;;5127123;27;20542;-59
2023/05/01 07:59:55;;;;;;;10.15;4.95;;;16.90;99.90;;;;;;5133987;27;20039;-58
2023/05/01 08:02:21;;;;;;;10.43;4.55;;;17.10;99.90;;;;;;5133719;27;20067;-59
2023/05/01 08:04:47;;;;;;;8.27;4.40;;;17.30;99.90;;;;;;5118703;27;20074;-59
2023/05/01 08:07:13;;;;;;;8.10;4.30;;;17.10;99.90;;;;;;5149902;27;20036;-59
2023/05/01 08:09:39;;;;;;;10.43;5.15;;;17.20;99.90;;;;;;5133624;27;20042;-58
2023/05/01 08:12:05;;;;;;;6.65;4.30;;;17.40;99.90;;;;;;5133764;27;20042;-59
2023/05/01 08:14:31;;;;;;;9.27;4.72;;;17.70;99.90;;;;;;5140952;27;20469;-59
2023/05/01 08:16:56;;;;;;;9.98;4.50;;;17.90;99.90;;;;;;5153004;27;20042;-59
2023/05/01 08:19:22;;;;;;;12.85;4.38;;;17.90;99.90;;;;;;5133138;28;20044;-58
2023/05/01 08:21:48;;;;;;;10.40;4.25;;;18.10;99.90;;;;;;5140491;27;20383;-59
2023/05/01 08:24:14;;;;;;;8.85;4.68;;;18.10;99.90;;;;;;5153916;27;20358;-59
2023/05/01 08:26:40;;;;;;;9.60;3.92;;;18.30;99.90;;;;;;5153601;27;20023;-59
2023/05/01 08:29:05;;;;;;;8.43;3.50;;;18.50;99.90;;;;;;5153627;27;20441;-59
2023/05/01 08:31:31;;;;;;;8.48;3.55;;;18.50;99.90;;;;;;5153315;27;20484;-59
2023/05/01 08:33:56;;;;;;;9.00;4.28;;;18.70;99.40;;;;;;5152839;27;20103;-59
2023/05/01 08:36:22;;;;;;;8.35;4.22;;;18.60;98.10;;;;;;5153382;27;20113;-59
2023/05/01 08:38:48;;;;;;;8.38;3.83;;;18.80;98.90;;;;;;5153448;27;20035;-59
2023/05/01 08:41:21;;;;;;;7.07;2.90;;;19.20;98.70;;;;;;5153635;27;20030;-59
2023/05/01 08:43:47;;;;;;;7.55;3.10;;;19.40;96.90;;;;;;5153232;27;20078;-59
2023/05/01 08:46:24;;;;;;;9.77;3.72;;;19.70;96.20;;;;;;5134815;27;20081;-59
2023/05/01 08:48:53;;;;;;;7.50;3.28;;;19.90;97.00;;;;;;5152772;27;20045;-59
2023/05/01 08:51:21;;;;;;;6.38;3.30;;;19.80;96.50;;;;;;5150050;27;20089;-59
2023/05/01 08:53:51;;;;;;;6.63;2.50;;;19.80;98.10;;;;;;5124591;27;20499;-59
2023/05/01 08:56:17;;;;;;;5.40;2.72;;;19.70;96.70;;;;;;5127712;27;20461;-59
2023/05/01 08:58:48;;;;;;;9.90;3.20;;;20.00;95.90;;;;;;5157621;27;20037;-59
2023/05/01 09:01:17;;;;;;;8.05;3.17;;;20.00;94.60;;;;;;5157844;27;20046;-59
2023/05/01 09:03:44;;;;;;;6.82;3.22;;;20.00;96.70;;;;;;5157298;27;20043;-59
2023/05/01 09:06:10;;;;;;;7.22;2.83;;;19.90;97.00;;;;;;5138948;27;20365;-59
2023/05/01 09:08:36;;;;;;;8.68;3.88;;;20.00;97.10;;;;;;5157561;27;20373;-59
2023/05/01 09:11:02;;;;;;;5.65;3.03;;;20.00;96.20;;;;;;5156700;27;20556;-59
2023/05/01 09:13:29;;;;;;;6.80;3.47;;;20.10;96.90;;;;;;5157364;27;20039;-59
2023/05/01 09:15:54;;;;;;;8.38;3.20;;;20.10;96.70;;;;;;5157216;27;20078;-58
2023/05/01 09:18:20;;;;;;;11.73;3.38;;;19.90;96.20;;;;;;5149613;27;20485;-59
2023/05/01 09:20:46;;;;;;;7.88;3.00;;;20.20;96.70;;;;;;5136758;27;20044;-59
2023/05/01 09:23:12;;;;;;;5.10;3.08;;;20.40;98.30;;;;;;5136191;27;20167;-59
2023/05/01 09:25:38;;;;;;;11.55;3.55;;;20.40;98.20;;;;;;5136332;27;20110;-59
2023/05/01 09:28:05;;;;;;;9.55;3.78;;;20.20;96.60;;;;;;5147976;27;20031;-59
2023/05/01 09:30:38;;;;;;;7.32;3.38;;;20.20;96.60;;;;;;5136040;27;20050;-59
2023/05/01 09:33:15;;;;;;;8.05;3.08;;;20.30;96.60;;;;;;5135895;27;20563;-59
2023/05/01 09:35:55;;;;;;;6.63;3.10;;;20.30;95.40;;;;;;5135848;27;20047;-59
2023/05/01 09:38:26;;;;;;;4.82;2.78;;;20.40;95.70;;;;;;5135847;27;20042;-59
2023/05/01 09:41:02;;;;;;;6.53;2.95;;;20.50;96.50;;;;;;5135983;27;20039;-59
2023/05/01 09:43:29;;;;;;;8.68;2.92;;;20.60;96.90;;;;;;5153434;27;20047;-59
2023/05/01 09:46:08;;;;;;;6.13;2.78;;;20.80;96.60;;;;;;5156793;27;20425;-59
2023/05/01 09:48:34;;;;;;;4.82;2.75;;;21.00;96.20;;;;;;5156694;27;20487;-59
2023/05/01 09:51:05;;;;;;;7.88;3.30;;;21.10;96.50;;;;;;5156408;27;20074;-59
2023/05/01 09:53:38;;;;;;;4.38;2.38;;;21.20;96.50;;;;;;5156628;27;20454;-59
2023/05/01 09:56:04;;;;;;;8.23;2.63;;;21.50;95.50;;;;;;5155773;27;20121;-59
2023/05/01 09:58:29;;;;;;;5.28;2.70;;;21.90;96.30;;;;;;5141305;27;20050;-59
2023/05/01 10:00:55;;;;;;;8.38;2.63;;;22.00;96.50;;;;;;5155942;27;20054;-60
2023/05/01 10:03:21;;;;;;;9.95;2.90;;;21.80;95.40;;;;;;5155906;27;20037;-60
2023/05/01 10:05:47;;;;;;;5.90;2.70;;;22.10;95.70;;;;;;5156299;27;20026;-60
2023/05/01 10:08:13;;;;;;;4.43;2.45;;;22.10;95.20;;;;;;5150415;27;20061;-60
2023/05/01 10:10:42;;;;;;;6.65;1.95;;;22.00;95.10;;;;;;5155928;27;20119;-61
2023/05/01 10:13:16;;;;;;;2.17;1.27;;;22.20;95.50;;;;;;5155593;27;20046;-59
2023/05/01 10:15:43;;;;;;;3.83;1.45;;;22.30;95.60;;;;;;5136022;27;20042;-61
2023/05/01 10:18:10;;;;;;;4.13;1.35;;;22.20;93.80;;;;;;5155771;27;20039;-59
2023/05/01 10:20:36;;;;;;;3.15;1.30;;;22.30;94.70;;;;;;5155653;27;20058;-59
2023/05/01 10:23:04;;;;;;;3.70;1.25;;;22.20;93.50;;;;;;5155634;27;20400;-59
2023/05/01 10:25:31;;;;;;;3.33;0.93;;;22.40;94.80;;;;;;5136101;27;20039;-59
2023/05/01 10:27:58;;;;;;;2.65;1.00;;;22.40;95.00;;;;;;5134520;27;20121;-60
2023/05/01 10:30:25;;;;;;;3.67;1.60;;;22.60;95.30;;;;;;5134703;27;20031;-60
2023/05/01 10:32:51;;;;;;;3.90;1.27;;;22.40;94.70;;;;;;5134467;27;20047;-59
2023/05/01 10:35:28;;;;;;;6.00;2.08;;;22.50;95.00;;;;;;5134782;27;20035;-58
2023/05/01 10:38:02;;;;;;;4.22;2.58;;;22.50;96.30;;;;;;5134378;27;20067;-58
2023/05/01 10:40:45;;;;;;;5.10;2.10;;;22.70;96.40;;;;;;5134376;27;20076;-59
2023/05/01 10:43:30;;;;;;;3.90;1.92;;;22.90;95.90;;;;;;5132836;27;20564;-59
2023/05/01 10:46:20;;;;;;;4.43;2.40;;;22.90;95.70;;;;;;5134279;27;20476;-59
2023/05/01 10:48:45;;;;;;;8.25;2.10;;;23.00;96.10;;;;;;5134077;27;20084;-59
2023/05/01 10:51:19;;;;;;;6.22;1.77;;;23.00;95.90;;;;;;5133970;27;20047;-60
2023/05/01 10:53:46;;;;;;;4.22;1.95;;;22.90;95.80;;;;;;5153261;27;20053;-60
2023/05/01 10:56:24;;;;;;;5.20;2.28;;;22.60;96.00;;;;;;5154824;27;20049;-60
2023/05/01 10:58:54;;;;;;;4.38;2.20;;;22.70;95.90;;;;;;5154620;27;20407;-61
2023/05/01 11:01:36;;;;;;;4.40;2.55;;;22.90;95.70;;;;;;5154745;27;20039;-61
2023/05/01 11:04:26;;;;;;;2.53;1.50;;;23.00;96.10;;;;;;5136306;27;20046;-61
2023/05/01 11:07:04;;;;;;;7.78;2.20;;;23.00;96.30;;;;;;5154686;27;20115;-61
2023/05/01 11:09:41;;;;;;;3.80;2.20;;;23.00;96.00;;;;;;5154548;27;20047;-60
2023/05/01 11:12:08;;;;;;;4.95;2.40;;;23.00;96.90;;;;;;5154489;27;20500;-60
2023/05/01 11:14:53;;;;;;;3.88;2.15;;;23.00;96.00;;;;;;5135762;27;20042;-59
2023/05/01 11:17:40;;;;;;;4.40;2.38;;;23.20;96.50;;;;;;5154581;27;20038;-61
2023/05/01 11:20:24;;;;;;;4.93;1.85;;;23.00;96.20;;;;;;5153442;27;20042;-60
2023/05/01 11:22:56;;;;;;;3.05;1.65;;;23.00;96.10;;;;;;5154248;27;20083;-60
2023/05/01 11:25:26;;;;;;;4.43;2.17;;;22.80;96.20;;;;;;5154294;27;20400;-60
2023/05/01 11:27:54;;;;;;;3.65;1.75;;;22.70;96.80;;;;;;5154244;27;20066;-59
2023/05/01 11:30:20;;;;;;;;;;;22.80;96.40;;;;;;5154632;27;20430;-59
2023/05/01 11:32:47;;;;;;;5.28;1.90;;;22.90;96.40;;;;;;5153953;27;19915;-59
2023/05/01 11:35:27;;;;;;;4.22;2.08;;;23.10;95.80;;;;;;5154056;27;20505;-60
2023/05/01 11:37:54;;;;;;;5.78;2.28;;;23.30;96.60;;;;;;5154103;27;20075;-60
2023/05/01 11:40:28;;;;;;;4.32;2.33;;;23.30;96.10;;;;;;5153889;27;20039;-61
2023/05/01 11:43:01;;;;;;;3.40;1.65;;;23.20;94.50;;;;;;5153716;27;20043;-60
2023/05/01 11:45:27;;;;;;;4.57;1.50;;;23.10;95.10;;;;;;5153798;27;20043;-60
2023/05/01 11:47:53;;;;;;;4.45;1.50;;;22.90;95.40;;;;;;5154035;27;20034;-60
2023/05/01 11:50:20;;;;;;;2.95;1.35;;;22.70;95.60;;;;;;5153831;27;20030;-60
2023/05/01 11:52:54;;;;;;;7.67;1.90;;;22.30;95.90;;;;;;5153820;27;20543;-60
2023/05/01 11:55:31;;;;;;;4.32;1.55;;;22.30;95.90;;;;;;5153840;27;20325;-60
2023/05/01 11:57:57;;;;;;;3.80;1.90;;;22.10;96.80;;;;;;5153773;27;20091;-60
2023/05/01 12:00:29;;;;;;;2.58;1.42;;;22.20;96.50;;;;;;5153640;27;20047;-60
2023/05/01 12:02:59;;;;;;;3.33;1.50;;;22.00;96.40;;;;;;5154130;27;20395;-60
2023/05/01 12:05:27;;;;;;;6.13;1.75;;;22.10;97.00;;;;;;5153777;27;20039;-59
2023/05/01 12:08:19;;;;;;;2.70;2.28;;;21.90;97.20;;;;;;5153723;27;20042;-60
2023/05/01 12:10:55;;;;;;;5.85;2.35;;;21.80;97.50;;;;;;5153746;27;20087;-60
2023/05/01 12:13:21;;;;;;;5.47;2.25;;;21.60;98.90;;;;;;5153599;27;20030;-59
2023/05/01 12:15:52;;;;;;;3.72;1.77;;;21.60;97.80;;;;;;5153629;27;20052;-60
2023/05/01 12:18:18;;;;;;;3.78;1.45;;;21.50;98.30;;;;;;5153294;27;20571;-60
2023/05/01 12:20:50;;;;;;;7.55;2.50;;;21.50;98.20;;;;;;5153474;27;20122;-60
2023/05/01 12:23:18;;;;;;;8.30;2.38;;;21.70;98.30;;;;;;5153782;27;20046;-60
2023/05/01 12:25:45;;;;;;;6.47;2.07;;;22.00;98.90;;;;;;5153820;27;20388;-60
2023/05/01 12:28:18;;;;;;;6.05;2.20;;;22.30;98.00;;;;;;5135353;27;20317;-60
2023/05/01 12:30:46;;;;;;;8.75;2.53;;;22.40;97.40;;;;;;5154639;27;20499;-63
2023/05/01 12:33:16;;;;;;;3.60;2.10;;;22.40;97.70;;;;;;5157587;27;20503;-57
2023/05/01 12:35:47;;;;;;;7.68;2.15;;;22.30;97.40;;;;;;5157474;27;20477;-57
2023/05/01 12:38:22;;;;;;;6.13;2.15;;;22.10;97.90;;;;;;5157678;27;20042;-57
2023/05/01 12:40:55;;;;;;;3.58;2.40;;;21.70;96.80;;;;;;5157780;27;20034;-58
2023/05/01 12:43:30;;;;;;;5.13;2.00;;;21.60;98.40;;;;;;5157285;27;20396;-57
2023/05/01 12:45:56;;;;;;;5.63;1.80;;;21.50;97.90;;;;;;5138816;27;20039;-57
2023/05/01 12:48:23;;;;;;;3.20;1.80;;;21.50;98.20;;;;;;5157557;27;20572;-58
2023/05/01 12:50:53;;;;;;;6.60;2.63;;;21.30;98.50;;;;;;5157449;27;20060;-58
2023/05/01 12:53:24;;;;;;;8.05;2.33;;;21.30;98.30;;;;;;5138746;27;20178;-58